This is the latest recevied weather packets stored in our database for station/object WX6HNX-14. If no packets are shown the sender has not sent any weather packets the latest 10 day(s).
| Time | Temp. | Humidity | Pressure | Rain* | Wind** | Luminosity | Snow |
|---|---|---|---|---|---|---|---|
| 1777723598 | 17.22° C | 61% | 1011.7 hPa | 0 mm | - | - | - |
| 1777722697 | 17.78° C | 57% | 1011.7 hPa | 0 mm | - | - | - |
| 1777722396 | 17.78° C | 57% | 1011.7 hPa | 0 mm | - | - | - |
| 1777722095 | 17.78° C | 56% | 1011.7 hPa | 0 mm | - | - | - |
| 1777721795 | 17.78° C | 56% | 1011.8 hPa | 0 mm | - | - | - |
| 1777721495 | 17.78° C | 57% | 1011.8 hPa | 0 mm | - | - | - |
| 1777721195 | 17.78° C | 58% | 1011.9 hPa | 0 mm | - | - | - |
| 1777720899 | 17.22° C | 59% | 1011.8 hPa | 0 mm | - | - | - |
| 1777720596 | 17.22° C | 60% | 1011.9 hPa | 0 mm | - | - | - |
| 1777720296 | 16.67° C | 61% | 1011.8 hPa | 0 mm | - | - | - |
| 1777719995 | 16.67° C | 61% | 1011.7 hPa | 0 mm | - | - | - |
| 1777719695 | 16.67° C | 62% | 1011.8 hPa | 0 mm | - | - | - |
| 1777719395 | 16.67° C | 61% | 1011.8 hPa | 0 mm | - | - | - |
| 1777718796 | 15.56° C | 68% | 1011.8 hPa | 0 mm | - | - | - |
| 1777718195 | 15° C | 69% | 1011.9 hPa | 0 mm | - | - | - |
| 1777717896 | 15.56° C | 69% | 1011.9 hPa | 0 mm | - | - | - |
| 1777717596 | 15.56° C | 68% | 1012 hPa | 0 mm | - | - | - |
| 1777717295 | 15.56° C | 66% | 1011.9 hPa | 0 mm | - | - | - |
| 1777716995 | 16.11° C | 66% | 1011.9 hPa | 0 mm | - | - | - |
| 1777716695 | 16.11° C | 65% | 1011.9 hPa | 0 mm | - | - | - |
| 1777716395 | 16.67° C | 65% | 1011.9 hPa | 0 mm | - | - | - |
| 1777716096 | 16.67° C | 65% | 1011.9 hPa | 0 mm | - | - | - |
| 1777715796 | 16.67° C | 64% | 1011.9 hPa | 0 mm | - | - | - |
| 1777715196 | 16.67° C | 65% | 1011.9 hPa | 0 mm | - | - | - |
| 1777714895 | 16.67° C | 66% | 1011.9 hPa | 0 mm | - | - | - |
* Rain latest hour (hover to see other rain measurements)
** Current wind speed in m/s (hover to see current wind gust speed)